createdAt,value
2022-11-09T00:00:56.360Z,100.00
2022-11-09T00:03:23.704Z,100.00
2022-11-09T00:05:54.890Z,100.00
2022-11-09T00:08:22.342Z,100.00
2022-11-09T00:10:49.781Z,100.00
2022-11-09T00:13:17.542Z,100.00
2022-11-09T00:15:45.748Z,100.00
2022-11-09T00:18:13.337Z,100.00
2022-11-09T00:20:46.910Z,100.00
2022-11-09T00:23:18.640Z,100.00
2022-11-09T00:25:47.616Z,100.00
2022-11-09T00:28:15.497Z,100.00
2022-11-09T00:30:42.937Z,100.00
2022-11-09T00:33:12.308Z,100.00
2022-11-09T00:35:45.214Z,100.00
2022-11-09T00:38:12.671Z,100.00
2022-11-09T00:40:39.926Z,100.00
2022-11-09T00:43:07.329Z,100.00
2022-11-09T00:45:34.767Z,100.00
2022-11-09T00:48:03.242Z,100.00
2022-11-09T00:50:30.605Z,100.00
2022-11-09T00:52:58.464Z,100.00
2022-11-09T00:55:26.584Z,100.00
2022-11-09T00:57:54.811Z,100.00
2022-11-09T01:00:24.545Z,100.00
2022-11-09T01:02:53.476Z,100.00
2022-11-09T01:05:20.784Z,100.00
2022-11-09T01:07:49.712Z,100.00
2022-11-09T01:10:17.126Z,100.00
2022-11-09T01:12:47.085Z,100.00
2022-11-09T01:15:15.720Z,100.00
2022-11-09T01:17:43.213Z,100.00
2022-11-09T01:20:11.619Z,100.00
2022-11-09T01:22:39.272Z,100.00
2022-11-09T01:25:07.465Z,100.00
2022-11-09T01:27:35.156Z,100.00
2022-11-09T01:30:05.118Z,100.00
2022-11-09T01:32:33.800Z,100.00
2022-11-09T01:35:01.252Z,100.00
2022-11-09T01:37:31.252Z,100.00
2022-11-09T01:39:58.658Z,100.00
2022-11-09T01:42:26.726Z,100.00
2022-11-09T01:45:22.170Z,100.00
2022-11-09T01:47:54.667Z,100.00
2022-11-09T01:50:31.669Z,100.00
2022-11-09T01:53:02.473Z,100.00
2022-11-09T01:55:30.502Z,100.00
2022-11-09T01:58:03.579Z,100.00
2022-11-09T02:00:34.322Z,100.00
2022-11-09T02:03:08.256Z,100.00
2022-11-09T02:05:39.729Z,100.00
2022-11-09T02:08:09.006Z,100.00
2022-11-09T02:10:53.291Z,100.00
2022-11-09T02:13:24.063Z,100.00
2022-11-09T02:15:52.129Z,100.00
2022-11-09T02:18:20.440Z,100.00
2022-11-09T02:20:50.942Z,100.00
2022-11-09T02:23:19.754Z,100.00
2022-11-09T02:25:59.915Z,100.00
2022-11-09T02:28:28.983Z,100.00
2022-11-09T02:30:58.208Z,100.00
2022-11-09T02:33:27.103Z,100.00
2022-11-09T02:35:55.479Z,100.00
2022-11-09T02:38:23.243Z,100.00
2022-11-09T02:40:53.000Z,100.00
2022-11-09T02:43:21.003Z,100.00
2022-11-09T02:45:48.975Z,100.00
2022-11-09T02:48:17.240Z,100.00
2022-11-09T02:50:44.596Z,100.00
2022-11-09T02:53:11.965Z,100.00
2022-11-09T02:55:43.271Z,100.00
2022-11-09T02:58:11.057Z,100.00
2022-11-09T03:00:40.098Z,100.00
2022-11-09T03:03:08.069Z,100.00
2022-11-09T03:05:35.796Z,100.00
2022-11-09T03:08:03.938Z,100.00
2022-11-09T03:10:34.658Z,100.00
2022-11-09T03:13:02.682Z,100.00
2022-11-09T03:15:29.914Z,100.00
2022-11-09T03:17:57.329Z,100.00
2022-11-09T03:20:25.453Z,100.00
2022-11-09T03:22:59.672Z,100.00
2022-11-09T03:25:28.821Z,100.00
2022-11-09T03:28:05.039Z,100.00
2022-11-09T03:30:32.879Z,100.00
2022-11-09T03:33:04.318Z,100.00
2022-11-09T03:35:31.906Z,100.00
2022-11-09T03:37:59.571Z,100.00
2022-11-09T03:40:27.129Z,100.00
2022-11-09T03:42:54.569Z,100.00
2022-11-09T03:45:22.137Z,100.00
2022-11-09T03:47:49.696Z,100.00
2022-11-09T03:50:17.918Z,100.00
2022-11-09T03:52:46.551Z,100.00
2022-11-09T03:55:15.008Z,100.00
2022-11-09T03:57:45.410Z,100.00
2022-11-09T04:00:16.243Z,100.00
2022-11-09T04:02:43.939Z,100.00
2022-11-09T04:05:11.975Z,100.00
2022-11-09T04:07:39.916Z,100.00
2022-11-09T04:10:07.933Z,100.00
2022-11-09T04:12:35.404Z,100.00
2022-11-09T04:15:02.656Z,100.00
2022-11-09T08:43:29.000Z,100.00
2022-11-09T08:45:56.468Z,100.00
2022-11-09T08:48:23.975Z,100.00
2022-11-09T08:50:56.679Z,100.00
2022-11-09T08:53:26.572Z,100.00
2022-11-09T08:55:54.340Z,100.00
2022-11-09T08:58:22.799Z,100.00
2022-11-09T09:00:50.643Z,100.00
2022-11-09T09:03:18.215Z,100.00
2022-11-09T09:05:45.672Z,100.00
2022-11-09T09:08:15.670Z,100.00
2022-11-09T09:10:43.375Z,100.00
2022-11-09T09:13:10.908Z,100.00
2022-11-09T09:15:38.301Z,100.00
2022-11-09T09:18:06.114Z,100.00
2022-11-09T09:20:33.713Z,100.00
2022-11-09T09:23:01.706Z,100.00
2022-11-09T09:25:29.107Z,100.00
2022-11-09T09:27:56.862Z,100.00
2022-11-09T09:30:24.603Z,100.00
2022-11-09T09:32:52.134Z,100.00
2022-11-09T09:35:19.516Z,100.00
2022-11-09T09:37:47.175Z,100.00
2022-11-09T09:40:49.928Z,98.85
2022-11-09T09:43:28.265Z,98.67
2022-11-09T09:45:57.184Z,97.18
2022-11-09T09:48:46.992Z,97.14
2022-11-09T09:51:54.207Z,95.53
2022-11-09T09:54:28.796Z,95.10
2022-11-09T09:57:00.446Z,93.86
2022-11-09T09:59:44.606Z,93.66
2022-11-09T10:02:21.071Z,91.92
2022-11-09T10:04:49.011Z,91.96
2022-11-09T10:07:45.503Z,91.71
2022-11-09T10:10:46.442Z,91.32
2022-11-09T10:13:32.115Z,90.97
2022-11-09T10:16:29.151Z,88.29
2022-11-09T10:19:32.229Z,87.31
2022-11-09T10:22:12.186Z,85.98
2022-11-09T10:25:37.688Z,85.71
2022-11-09T10:27:59.633Z,83.93
2022-11-09T10:30:29.500Z,83.95
2022-11-09T10:33:14.066Z,82.70
2022-11-09T10:35:46.349Z,82.18
2022-11-09T10:38:20.405Z,82.30
2022-11-09T10:41:17.110Z,82.62
2022-11-09T10:44:03.027Z,82.07
2022-11-09T10:47:12.467Z,82.50
2022-11-09T10:50:24.594Z,83.82
2022-11-09T10:53:31.800Z,82.96
2022-11-09T10:56:21.605Z,81.72
2022-11-09T10:59:29.678Z,81.38
2022-11-09T11:02:24.951Z,82.56
2022-11-09T11:05:12.809Z,82.06
2022-11-09T11:08:11.942Z,82.24
2022-11-09T11:11:32.705Z,82.64
2022-11-09T11:14:25.876Z,83.12
2022-11-09T11:17:34.980Z,82.80
2022-11-09T11:20:24.245Z,80.75
2022-11-09T11:23:22.455Z,81.10
2022-11-09T11:26:23.744Z,81.96
2022-11-09T11:29:19.086Z,82.51
2022-11-09T11:32:11.239Z,81.37
2022-11-09T11:35:00.840Z,82.08
2022-11-09T11:37:59.835Z,82.26
2022-11-09T11:41:24.360Z,82.65
2022-11-09T11:44:26.357Z,81.87
2022-11-09T11:47:25.009Z,80.92
2022-11-09T11:50:32.438Z,80.92
2022-11-09T11:53:43.333Z,78.65
2022-11-09T11:56:46.767Z,78.80
2022-11-09T11:59:48.717Z,77.21
2022-11-09T12:03:03.681Z,74.12
2022-11-09T12:06:07.828Z,72.88
2022-11-09T12:09:29.092Z,72.35
2022-11-09T12:12:44.274Z,71.92
2022-11-09T12:15:51.226Z,71.07
2022-11-09T12:19:35.997Z,70.85
2022-11-09T12:22:40.033Z,70.45
2022-11-09T12:25:38.116Z,70.15
2022-11-09T12:28:48.841Z,70.58
2022-11-09T12:31:49.932Z,69.45
2022-11-09T12:34:48.066Z,68.54
2022-11-09T12:37:40.135Z,68.49
2022-11-09T12:40:30.404Z,66.55
2022-11-09T12:43:46.115Z,67.45
2022-11-09T12:46:45.083Z,67.08
2022-11-09T12:49:41.239Z,67.95
2022-11-09T12:52:29.979Z,68.61
2022-11-09T12:55:19.971Z,69.15
2022-11-09T12:58:06.115Z,69.76
2022-11-09T13:00:55.436Z,70.02
2022-11-09T13:03:54.426Z,68.53
2022-11-09T13:06:42.421Z,68.10
2022-11-09T13:09:43.688Z,67.55
2022-11-09T13:12:38.089Z,68.07
2022-11-09T13:15:29.114Z,68.44
2022-11-09T13:18:48.668Z,67.67
2022-11-09T13:21:36.441Z,67.92
2022-11-09T13:24:31.971Z,68.31
2022-11-09T13:27:45.940Z,68.62
2022-11-09T13:30:42.791Z,68.65
2022-11-09T13:33:29.960Z,69.11
2022-11-09T13:36:18.063Z,68.48
2022-11-09T13:39:26.198Z,69.47
2022-11-09T13:42:31.926Z,70.14
2022-11-09T13:45:57.014Z,70.74
2022-11-09T13:48:47.821Z,71.73
2022-11-09T13:51:36.993Z,71.81
2022-11-09T13:54:36.317Z,70.59
2022-11-09T13:57:24.867Z,68.94
2022-11-09T14:00:23.495Z,70.15
2022-11-09T14:03:28.215Z,69.43
2022-11-09T14:06:14.092Z,67.74
2022-11-09T14:09:01.684Z,68.29
2022-11-09T14:12:15.330Z,67.05
2022-11-09T14:15:29.314Z,67.40
2022-11-09T14:18:54.621Z,67.00
2022-11-09T14:21:52.618Z,66.83
2022-11-09T14:24:38.678Z,66.86
2022-11-09T14:27:24.660Z,67.23
2022-11-09T14:30:18.988Z,67.93
2022-11-09T14:33:23.668Z,67.92
2022-11-09T14:36:12.504Z,67.59
2022-11-09T14:39:02.735Z,67.86
2022-11-09T14:41:49.742Z,67.40
2022-11-09T14:44:44.034Z,68.52
2022-11-09T14:47:32.987Z,68.91
2022-11-09T14:50:25.494Z,69.08
2022-11-09T14:53:22.454Z,69.18
2022-11-09T14:56:15.612Z,69.13
2022-11-09T14:59:05.857Z,68.86
2022-11-09T15:02:01.046Z,68.77
2022-11-09T15:04:55.396Z,69.27
2022-11-09T15:07:46.178Z,70.38
2022-11-09T15:10:32.799Z,70.52
2022-11-09T15:13:27.751Z,71.27
2022-11-09T15:16:24.503Z,71.10
2022-11-09T15:19:22.663Z,71.27
2022-11-09T15:22:54.565Z,72.18
2022-11-09T15:25:43.597Z,72.57
2022-11-09T15:28:31.089Z,72.52
2022-11-09T15:31:19.382Z,72.04
2022-11-09T15:34:24.239Z,72.31
2022-11-09T15:37:28.465Z,73.12
2022-11-09T15:40:18.066Z,72.67
2022-11-09T15:43:03.925Z,72.83
2022-11-09T15:45:50.184Z,72.37
2022-11-09T15:48:36.510Z,72.56
2022-11-09T15:51:22.595Z,73.36
2022-11-09T15:54:09.281Z,74.31
2022-11-09T15:56:55.250Z,75.80
2022-11-09T15:59:41.430Z,76.78
2022-11-09T16:02:27.566Z,78.02
2022-11-09T16:05:14.062Z,78.75
2022-11-09T16:08:00.040Z,79.61
2022-11-09T16:10:45.948Z,80.42
2022-11-09T16:13:32.110Z,81.69
2022-11-09T16:16:17.824Z,82.55
2022-11-09T16:19:03.847Z,83.05
2022-11-09T16:21:52.483Z,83.57
2022-11-09T16:24:39.191Z,84.04
2022-11-09T16:27:49.013Z,85.09
2022-11-09T16:30:32.074Z,85.67
2022-11-09T16:33:18.253Z,86.35
2022-11-09T16:36:09.138Z,87.46
2022-11-09T16:38:57.020Z,88.36
2022-11-09T16:41:46.937Z,88.98
2022-11-09T16:44:36.517Z,89.24
2022-11-09T16:47:22.657Z,90.01
2022-11-09T16:50:09.993Z,90.75
2022-11-09T16:52:56.214Z,90.94
2022-11-09T16:55:42.398Z,91.46
2022-11-09T16:58:28.430Z,91.92
2022-11-09T17:01:17.749Z,92.43
2022-11-09T17:04:06.808Z,93.26
2022-11-09T17:06:53.474Z,94.02
2022-11-09T17:09:39.446Z,94.15
2022-11-09T17:12:25.479Z,94.58
2022-11-09T17:15:11.426Z,95.95
2022-11-09T17:17:57.439Z,96.85
2022-11-09T17:20:44.873Z,97.03
2022-11-09T17:23:31.656Z,97.76
2022-11-09T17:26:18.321Z,98.22
2022-11-09T17:29:05.062Z,98.41
2022-11-09T17:31:51.642Z,98.99
2022-11-09T17:34:37.472Z,100.00
2022-11-09T17:37:24.067Z,100.00
2022-11-09T17:40:10.604Z,100.00
2022-11-09T17:42:57.330Z,100.00
2022-11-09T17:45:43.377Z,100.00
2022-11-09T17:48:29.221Z,100.00
2022-11-09T17:51:16.884Z,100.00
2022-11-09T17:54:04.696Z,100.00
2022-11-09T17:56:51.153Z,100.00
2022-11-09T17:59:37.436Z,100.00
2022-11-09T18:02:23.850Z,100.00
2022-11-09T18:05:11.089Z,100.00
2022-11-09T18:07:56.884Z,100.00
2022-11-09T18:10:45.510Z,100.00
2022-11-09T18:13:31.439Z,100.00
2022-11-09T18:16:19.674Z,100.00
2022-11-09T18:19:06.666Z,100.00
2022-11-09T18:21:53.158Z,100.00
2022-11-09T18:24:39.459Z,100.00
2022-11-09T18:27:30.133Z,100.00
2022-11-09T18:30:17.795Z,100.00
2022-11-09T18:33:03.979Z,100.00
2022-11-09T18:36:02.687Z,100.00
2022-11-09T18:38:51.246Z,100.00
2022-11-09T18:41:37.490Z,100.00
2022-11-09T18:44:23.573Z,100.00
2022-11-09T18:47:09.788Z,100.00
2022-11-09T18:49:56.133Z,100.00
2022-11-09T18:52:41.957Z,100.00
2022-11-09T18:55:27.997Z,100.00
2022-11-09T18:58:14.634Z,100.00
2022-11-09T19:01:07.762Z,100.00
2022-11-09T19:03:58.932Z,100.00
2022-11-09T19:06:46.234Z,100.00
2022-11-09T19:09:35.870Z,100.00
2022-11-09T19:12:22.220Z,100.00
2022-11-09T19:15:08.824Z,100.00
2022-11-09T19:17:55.073Z,100.00
2022-11-09T19:20:41.329Z,100.00
2022-11-09T19:23:32.990Z,100.00
2022-11-09T19:26:23.464Z,100.00
2022-11-09T19:29:11.754Z,100.00
2022-11-09T19:31:57.686Z,100.00
2022-11-09T19:34:43.775Z,100.00
2022-11-09T19:37:29.831Z,100.00
2022-11-09T19:40:16.378Z,100.00
2022-11-09T19:43:02.430Z,100.00
2022-11-09T19:45:48.575Z,100.00
2022-11-09T19:48:35.195Z,100.00
2022-11-09T19:51:21.173Z,100.00
2022-11-09T19:54:07.449Z,100.00
2022-11-09T19:56:53.463Z,100.00
2022-11-09T19:59:39.509Z,100.00
2022-11-09T20:02:25.800Z,100.00
2022-11-09T20:05:11.911Z,100.00
2022-11-09T20:07:58.104Z,100.00
2022-11-09T20:10:43.978Z,100.00
2022-11-09T20:13:30.174Z,100.00
2022-11-09T20:16:16.246Z,100.00
2022-11-09T20:19:03.573Z,100.00
2022-11-09T20:21:49.726Z,100.00
2022-11-09T20:24:37.290Z,100.00
2022-11-09T20:27:25.829Z,100.00
2022-11-09T20:30:14.223Z,100.00
2022-11-09T20:33:01.671Z,100.00
2022-11-09T20:35:55.412Z,100.00
2022-11-09T20:38:42.085Z,100.00
2022-11-09T20:41:28.245Z,100.00
2022-11-09T20:44:14.836Z,100.00
2022-11-09T20:47:01.014Z,100.00
2022-11-09T20:49:48.501Z,100.00
2022-11-09T20:52:34.955Z,100.00
2022-11-09T20:55:21.002Z,100.00
2022-11-09T20:58:11.869Z,100.00
2022-11-09T21:01:15.598Z,100.00
2022-11-09T21:04:02.214Z,100.00
2022-11-09T21:06:48.222Z,100.00
2022-11-09T21:09:34.743Z,100.00
2022-11-09T21:12:24.951Z,100.00
2022-11-09T21:15:14.170Z,100.00
2022-11-09T21:18:00.282Z,100.00
2022-11-09T21:20:46.359Z,100.00
2022-11-09T21:23:51.342Z,100.00
2022-11-09T21:26:56.099Z,100.00
2022-11-09T21:29:51.211Z,100.00
2022-11-09T21:32:38.365Z,100.00
2022-11-09T21:35:24.999Z,100.00
2022-11-09T21:38:11.257Z,100.00
2022-11-09T21:41:05.439Z,100.00
2022-11-09T21:43:57.353Z,100.00
2022-11-09T21:46:44.286Z,100.00
2022-11-09T21:49:30.331Z,100.00
2022-11-09T21:52:16.473Z,100.00
2022-11-09T21:55:02.578Z,100.00
2022-11-09T21:57:49.044Z,100.00
2022-11-09T22:00:34.964Z,100.00
2022-11-09T22:03:21.333Z,100.00
2022-11-09T22:06:08.629Z,100.00
2022-11-09T22:08:55.016Z,100.00
2022-11-09T22:11:59.942Z,100.00
2022-11-09T22:15:04.365Z,100.00
2022-11-09T22:17:53.834Z,100.00
2022-11-09T22:20:55.059Z,100.00
2022-11-09T22:23:41.801Z,100.00
2022-11-09T22:26:29.574Z,100.00
2022-11-09T22:29:15.670Z,100.00
2022-11-09T22:32:01.980Z,100.00
2022-11-09T22:34:48.082Z,100.00
2022-11-09T22:37:34.037Z,100.00
2022-11-09T22:40:20.151Z,100.00
2022-11-09T22:43:06.173Z,100.00
2022-11-09T22:45:52.323Z,100.00
2022-11-09T22:48:38.934Z,100.00
2022-11-09T22:51:25.161Z,100.00
2022-11-09T22:54:11.389Z,100.00
2022-11-09T22:56:57.456Z,100.00
2022-11-09T22:59:43.381Z,100.00
2022-11-09T23:02:29.474Z,100.00
2022-11-09T23:05:15.579Z,100.00
2022-11-09T23:08:01.738Z,100.00
2022-11-09T23:10:55.333Z,100.00
2022-11-09T23:13:42.238Z,100.00
2022-11-09T23:16:28.448Z,100.00
2022-11-09T23:19:14.256Z,100.00
2022-11-09T23:22:00.196Z,100.00
2022-11-09T23:25:04.733Z,100.00
2022-11-09T23:27:52.124Z,100.00
2022-11-09T23:30:38.684Z,100.00
2022-11-09T23:33:25.023Z,100.00
2022-11-09T23:36:11.332Z,100.00
2022-11-09T23:38:57.421Z,100.00
2022-11-09T23:41:43.203Z,100.00
2022-11-09T23:44:29.248Z,100.00
2022-11-09T23:47:15.340Z,100.00
2022-11-09T23:50:01.388Z,100.00
2022-11-09T23:52:47.569Z,100.00
2022-11-09T23:55:34.057Z,100.00
2022-11-09T23:58:20.156Z,100.00
